sensor_id;sensor_type;location;lat;lon;timestamp;pressure;altitude;pressure_sealevel;temperature;humidity
11678;BME280;5895;41.950;24.372;2024-02-21T00:01:49;87191.56;;;0.76;98.39
11678;BME280;5895;41.950;24.372;2024-02-21T00:04:16;87163.97;;;0.71;98.15
11678;BME280;5895;41.950;24.372;2024-02-21T00:06:44;87174.31;;;0.78;98.78
11678;BME280;5895;41.950;24.372;2024-02-21T00:09:13;87171.47;;;0.73;98.96
11678;BME280;5895;41.950;24.372;2024-02-21T00:11:40;87177.72;;;0.54;98.79
11678;BME280;5895;41.950;24.372;2024-02-21T00:14:07;87159.66;;;0.72;99.73
11678;BME280;5895;41.950;24.372;2024-02-21T00:16:34;87176.75;;;0.79;99.90
11678;BME280;5895;41.950;24.372;2024-02-21T00:19:01;87173.41;;;0.79;100.00
11678;BME280;5895;41.950;24.372;2024-02-21T00:21:29;87144.19;;;0.65;100.00
11678;BME280;5895;41.950;24.372;2024-02-21T00:23:56;87170.50;;;0.82;100.00
11678;BME280;5895;41.950;24.372;2024-02-21T00:26:25;87153.91;;;0.78;100.00
11678;BME280;5895;41.950;24.372;2024-02-21T00:28:53;87155.19;;;0.82;100.00
11678;BME280;5895;41.950;24.372;2024-02-21T00:31:20;87158.34;;;0.84;100.00
11678;BME280;5895;41.950;24.372;2024-02-21T00:33:47;87150.06;;;0.82;100.00
11678;BME280;5895;41.950;24.372;2024-02-21T00:36:14;87151.66;;;0.83;100.00
11678;BME280;5895;41.950;24.372;2024-02-21T00:38:41;87156.75;;;0.83;100.00
11678;BME280;5895;41.950;24.372;2024-02-21T00:41:09;87153.09;;;0.77;100.00
11678;BME280;5895;41.950;24.372;2024-02-21T00:43:37;87154.06;;;0.85;100.00
11678;BME280;5895;41.950;24.372;2024-02-21T00:46:05;87162.84;;;0.82;100.00
11678;BME280;5895;41.950;24.372;2024-02-21T00:48:33;87163.47;;;0.84;100.00
11678;BME280;5895;41.950;24.372;2024-02-21T00:51:00;87161.56;;;0.86;100.00
11678;BME280;5895;41.950;24.372;2024-02-21T00:53:28;87151.66;;;0.83;100.00
11678;BME280;5895;41.950;24.372;2024-02-21T00:55:55;87170.81;;;0.87;100.00
11678;BME280;5895;41.950;24.372;2024-02-21T00:58:22;87158.22;;;0.86;100.00
11678;BME280;5895;41.950;24.372;2024-02-21T01:00:51;87177.84;;;0.85;100.00
11678;BME280;5895;41.950;24.372;2024-02-21T01:03:18;87157.91;;;0.81;100.00
11678;BME280;5895;41.950;24.372;2024-02-21T01:05:46;87142.72;;;0.87;100.00
11678;BME280;5895;41.950;24.372;2024-02-21T01:08:13;87142.88;;;0.86;100.00
11678;BME280;5895;41.950;24.372;2024-02-21T01:10:40;87119.16;;;0.69;100.00
11678;BME280;5895;41.950;24.372;2024-02-21T01:13:08;87165.25;;;0.75;100.00
11678;BME280;5895;41.950;24.372;2024-02-21T01:15:35;87155.00;;;0.92;100.00
11678;BME280;5895;41.950;24.372;2024-02-21T01:18:04;87152.94;;;0.87;100.00
11678;BME280;5895;41.950;24.372;2024-02-21T01:20:32;87156.91;;;0.90;100.00
11678;BME280;5895;41.950;24.372;2024-02-21T01:22:59;87132.19;;;0.90;100.00
11678;BME280;5895;41.950;24.372;2024-02-21T01:25:27;87139.31;;;0.95;100.00
11678;BME280;5895;41.950;24.372;2024-02-21T01:27:54;87145.41;;;0.94;100.00
11678;BME280;5895;41.950;24.372;2024-02-21T01:30:21;87155.97;;;0.91;100.00
11678;BME280;5895;41.950;24.372;2024-02-21T01:32:49;87128.31;;;0.94;100.00
11678;BME280;5895;41.950;24.372;2024-02-21T01:35:17;87139.00;;;0.98;100.00
11678;BME280;5895;41.950;24.372;2024-02-21T01:37:45;87128.31;;;0.94;100.00
11678;BME280;5895;41.950;24.372;2024-02-21T01:40:12;87134.69;;;0.98;100.00
11678;BME280;5895;41.950;24.372;2024-02-21T01:42:40;87144.91;;;0.98;100.00
11678;BME280;5895;41.950;24.372;2024-02-21T01:45:08;87144.28;;;0.96;100.00
11678;BME280;5895;41.950;24.372;2024-02-21T01:47:36;87120.88;;;0.76;100.00
11678;BME280;5895;41.950;24.372;2024-02-21T01:50:04;87136.47;;;0.90;100.00
11678;BME280;5895;41.950;24.372;2024-02-21T01:52:34;87095.31;;;0.85;100.00
11678;BME280;5895;41.950;24.372;2024-02-21T01:55:02;87126.84;;;1.00;100.00
11678;BME280;5895;41.950;24.372;2024-02-21T01:57:30;87122.88;;;0.97;100.00
11678;BME280;5895;41.950;24.372;2024-02-21T01:59:57;87123.50;;;0.99;100.00
11678;BME280;5895;41.950;24.372;2024-02-21T02:02:25;87136.28;;;0.99;100.00
11678;BME280;5895;41.950;24.372;2024-02-21T02:04:53;87127.34;;;0.95;100.00
11678;BME280;5895;41.950;24.372;2024-02-21T02:07:21;87123.56;;;0.91;100.00
11678;BME280;5895;41.950;24.372;2024-02-21T02:09:49;87120.81;;;0.93;100.00
11678;BME280;5895;41.950;24.372;2024-02-21T02:12:17;87120.97;;;0.99;100.00
11678;BME280;5895;41.950;24.372;2024-02-21T02:14:44;87143.63;;;0.94;100.00
11678;BME280;5895;41.950;24.372;2024-02-21T02:17:11;87109.47;;;0.95;100.00
11678;BME280;5895;41.950;24.372;2024-02-21T02:19:39;87119.84;;;1.02;100.00
11678;BME280;5895;41.950;24.372;2024-02-21T02:22:10;87082.38;;;0.86;100.00
11678;BME280;5895;41.950;24.372;2024-02-21T02:24:40;87135.63;;;1.05;100.00
11678;BME280;5895;41.950;24.372;2024-02-21T02:27:08;87106.56;;;1.06;100.00
11678;BME280;5895;41.950;24.372;2024-02-21T02:29:35;87115.19;;;1.05;100.00
11678;BME280;5895;41.950;24.372;2024-02-21T02:32:02;87077.28;;;0.86;100.00
11678;BME280;5895;41.950;24.372;2024-02-21T02:34:30;87086.81;;;0.92;100.00
11678;BME280;5895;41.950;24.372;2024-02-21T02:36:58;87103.38;;;1.04;100.00
11678;BME280;5895;41.950;24.372;2024-02-21T02:39:25;87064.38;;;0.79;100.00
11678;BME280;5895;41.950;24.372;2024-02-21T02:41:54;87106.56;;;1.06;100.00
11678;BME280;5895;41.950;24.372;2024-02-21T02:44:22;87084.41;;;0.99;100.00
11678;BME280;5895;41.950;24.372;2024-02-21T02:46:49;87087.56;;;1.01;100.00
11678;BME280;5895;41.950;24.372;2024-02-21T02:49:17;87108.16;;;1.08;100.00
11678;BME280;5895;41.950;24.372;2024-02-21T02:51:44;87101.63;;;1.05;100.00
11678;BME280;5895;41.950;24.372;2024-02-21T02:54:12;87099.84;;;1.05;100.00
11678;BME280;5895;41.950;24.372;2024-02-21T02:56:39;87134.69;;;0.98;100.00
11678;BME280;5895;41.950;24.372;2024-02-21T02:59:08;87086.22;;;0.90;100.00
11678;BME280;5895;41.950;24.372;2024-02-21T03:01:36;87103.25;;;0.98;100.00
11678;BME280;5895;41.950;24.372;2024-02-21T03:04:04;87108.34;;;0.98;100.00
11678;BME280;5895;41.950;24.372;2024-02-21T03:06:32;87107.22;;;1.00;100.00
11678;BME280;5895;41.950;24.372;2024-02-21T03:09:02;87113.00;;;0.94;100.00
11678;BME280;5895;41.950;24.372;2024-02-21T03:11:35;87104.72;;;0.92;100.00
11678;BME280;5895;41.950;24.372;2024-02-21T03:14:03;87087.69;;;0.76;100.00
11678;BME280;5895;41.950;24.372;2024-02-21T03:16:34;87096.75;;;0.87;100.00
11678;BME280;5895;41.950;24.372;2024-02-21T03:19:01;87110.59;;;0.93;100.00
11678;BME280;5895;41.950;24.372;2024-02-21T03:21:29;87110.47;;;0.86;100.00
11678;BME280;5895;41.950;24.372;2024-02-21T03:23:56;87113.34;;;0.83;100.00
11678;BME280;5895;41.950;24.372;2024-02-21T03:26:23;87095.81;;;0.72;100.00
11678;BME280;5895;41.950;24.372;2024-02-21T03:28:51;87102.25;;;0.68;100.00
11678;BME280;5895;41.950;24.372;2024-02-21T03:31:18;87100.63;;;0.67;100.00
11678;BME280;5895;41.950;24.372;2024-02-21T03:33:47;87102.41;;;0.58;100.00
11678;BME280;5895;41.950;24.372;2024-02-21T03:36:14;87073.09;;;0.46;100.00
11678;BME280;5895;41.950;24.372;2024-02-21T03:38:42;87074.22;;;0.43;100.00
11678;BME280;5895;41.950;24.372;2024-02-21T03:41:09;87098.28;;;0.49;100.00
11678;BME280;5895;41.950;24.372;2024-02-21T03:43:37;87095.91;;;0.47;100.00
11678;BME280;5895;41.950;24.372;2024-02-21T03:46:04;87108.97;;;0.52;100.00
11678;BME280;5895;41.950;24.372;2024-02-21T03:48:32;87096.72;;;0.40;100.00
11678;BME280;5895;41.950;24.372;2024-02-21T03:51:01;87106.25;;;0.54;100.00
11678;BME280;5895;41.950;24.372;2024-02-21T03:53:28;87114.53;;;0.56;100.00
11678;BME280;5895;41.950;24.372;2024-02-21T03:55:55;87112.16;;;0.55;100.00
11678;BME280;5895;41.950;24.372;2024-02-21T03:58:28;87116.94;;;0.58;100.00
11678;BME280;5895;41.950;24.372;2024-02-21T04:00:55;87128.91;;;0.57;100.00
11678;BME280;5895;41.950;24.372;2024-02-21T04:03:23;87086.66;;;0.46;100.00
11678;BME280;5895;41.950;24.372;2024-02-21T04:05:50;87075.34;;;0.41;100.00
11678;BME280;5895;41.950;24.372;2024-02-21T04:08:19;87124.28;;;0.52;100.00
11678;BME280;5895;41.950;24.372;2024-02-21T04:10:47;87108.31;;;0.59;100.00
11678;BME280;5895;41.950;24.372;2024-02-21T04:13:14;87096.22;;;0.44;100.00
11678;BME280;5895;41.950;24.372;2024-02-21T04:15:41;87108.94;;;0.61;100.00
11678;BME280;5895;41.950;24.372;2024-02-21T04:18:09;87108.31;;;0.59;100.00
11678;BME280;5895;41.950;24.372;2024-02-21T04:20:36;87105.94;;;0.57;100.00
11678;BME280;5895;41.950;24.372;2024-02-21T04:23:03;87112.63;;;0.58;100.00
11678;BME280;5895;41.950;24.372;2024-02-21T04:25:32;87111.84;;;0.58;100.00
11678;BME280;5895;41.950;24.372;2024-02-21T04:28:00;87111.84;;;0.58;100.00
11678;BME280;5895;41.950;24.372;2024-02-21T04:30:27;87106.72;;;0.49;100.00
11678;BME280;5895;41.950;24.372;2024-02-21T04:32:54;87132.25;;;0.49;100.00
11678;BME280;5895;41.950;24.372;2024-02-21T04:35:22;87140.72;;;0.50;100.00
11678;BME280;5895;41.950;24.372;2024-02-21T04:37:49;87113.59;;;0.49;100.00
11678;BME280;5895;41.950;24.372;2024-02-21T04:40:16;87121.09;;;0.50;100.00
11678;BME280;5895;41.950;24.372;2024-02-21T04:42:45;87124.59;;;0.49;100.00
11678;BME280;5895;41.950;24.372;2024-02-21T04:45:12;87110.56;;;0.53;100.00
11678;BME280;5895;41.950;24.372;2024-02-21T04:47:39;87111.03;;;0.49;100.00
11678;BME280;5895;41.950;24.372;2024-02-21T04:50:07;87130.66;;;0.57;100.00
11678;BME280;5895;41.950;24.372;2024-02-21T04:52:34;87120.13;;;0.60;100.00
11678;BME280;5895;41.950;24.372;2024-02-21T04:55:02;87145.66;;;0.51;100.00
11678;BME280;5895;41.950;24.372;2024-02-21T04:57:29;87128.75;;;0.59;100.00
11678;BME280;5895;41.950;24.372;2024-02-21T04:59:58;87122.97;;;0.65;100.00
11678;BME280;5895;41.950;24.372;2024-02-21T05:02:25;87120.13;;;0.68;100.00
11678;BME280;5895;41.950;24.372;2024-02-21T05:04:52;87128.56;;;0.68;100.00
11678;BME280;5895;41.950;24.372;2024-02-21T05:07:20;87127.13;;;0.66;100.00
11678;BME280;5895;41.950;24.372;2024-02-21T05:09:47;87122.31;;;0.71;100.00
11678;BME280;5895;41.950;24.372;2024-02-21T05:12:14;87142.75;;;0.71;100.00
11678;BME280;5895;41.950;24.372;2024-02-21T05:14:41;87125.66;;;0.71;100.00
11678;BME280;5895;41.950;24.372;2024-02-21T05:17:11;87135.09;;;0.79;100.00
11678;BME280;5895;41.950;24.372;2024-02-21T05:19:38;87129.03;;;0.72;100.00
11678;BME280;5895;41.950;24.372;2024-02-21T05:22:05;87108.31;;;0.59;100.00
11678;BME280;5895;41.950;24.372;2024-02-21T05:24:33;87145.31;;;0.79;100.00
11678;BME280;5895;41.950;24.372;2024-02-21T05:27:00;87136.34;;;0.83;100.00
11678;BME280;5895;41.950;24.372;2024-02-21T05:29:27;87138.75;;;0.85;100.00
11678;BME280;5895;41.950;24.372;2024-02-21T05:31:56;87101.41;;;0.67;100.00
11678;BME280;5895;41.950;24.372;2024-02-21T05:34:26;87168.63;;;0.68;100.00
11678;BME280;5895;41.950;24.372;2024-02-21T05:36:53;87132.53;;;0.79;100.00
11678;BME280;5895;41.950;24.372;2024-02-21T05:39:20;87090.75;;;0.56;100.00
11678;BME280;5895;41.950;24.372;2024-02-21T05:41:48;87157.88;;;0.89;100.00
11678;BME280;5895;41.950;24.372;2024-02-21T05:44:16;87145.75;;;0.91;100.00
11678;BME280;5895;41.950;24.372;2024-02-21T05:46:44;87141.00;;;0.79;100.00
11678;BME280;5895;41.950;24.372;2024-02-21T05:49:11;87151.97;;;0.88;100.00
11678;BME280;5895;41.950;24.372;2024-02-21T05:51:41;87163.16;;;0.87;100.00
11678;BME280;5895;41.950;24.372;2024-02-21T05:54:08;87137.34;;;0.74;100.00
11678;BME280;5895;41.950;24.372;2024-02-21T05:56:35;87151.78;;;0.90;100.00
11678;BME280;5895;41.950;24.372;2024-02-21T05:59:03;87160.25;;;0.98;100.00
11678;BME280;5895;41.950;24.372;2024-02-21T06:01:30;87160.72;;;1.02;100.00
11678;BME280;5895;41.950;24.372;2024-02-21T06:03:58;87160.38;;;1.05;100.00
11678;BME280;5895;41.950;24.372;2024-02-21T06:06:25;87165.47;;;1.05;100.00
11678;BME280;5895;41.950;24.372;2024-02-21T06:08:54;87170.16;;;1.01;100.00
11678;BME280;5895;41.950;24.372;2024-02-21T06:11:21;87168.34;;;1.10;100.00
11678;BME280;5895;41.950;24.372;2024-02-21T06:13:48;87175.84;;;1.12;99.92
11678;BME280;5895;41.950;24.372;2024-02-21T06:16:15;87176.81;;;1.19;100.00
11678;BME280;5895;41.950;24.372;2024-02-21T06:18:43;87182.34;;;1.22;99.34
11678;BME280;5895;41.950;24.372;2024-02-21T06:21:10;87179.66;;;1.24;100.00
11678;BME280;5895;41.950;24.372;2024-02-21T06:23:38;87166.22;;;1.22;100.00
11678;BME280;5895;41.950;24.372;2024-02-21T06:26:07;87182.16;;;1.32;99.67
11678;BME280;5895;41.950;24.372;2024-02-21T06:28:34;87190.31;;;1.36;99.77
11678;BME280;5895;41.950;24.372;2024-02-21T06:31:02;87185.81;;;1.38;99.67
11678;BME280;5895;41.950;24.372;2024-02-21T06:33:30;87186.31;;;1.41;99.67
11678;BME280;5895;41.950;24.372;2024-02-21T06:36:08;87185.66;;;1.39;99.95
11678;BME280;5895;41.950;24.372;2024-02-21T06:38:39;87147.38;;;1.23;99.72
11678;BME280;5895;41.950;24.372;2024-02-21T06:41:15;87184.97;;;1.53;100.00
11678;BME280;5895;41.950;24.372;2024-02-21T06:43:44;87181.63;;;1.53;99.29
11678;BME280;5895;41.950;24.372;2024-02-21T06:46:21;87189.09;;;1.54;98.85
11678;BME280;5895;41.950;24.372;2024-02-21T06:48:49;87213.66;;;1.72;98.26
11678;BME280;5895;41.950;24.372;2024-02-21T06:51:17;87198.41;;;1.78;98.05
11678;BME280;5895;41.950;24.372;2024-02-21T06:53:44;87183.56;;;1.74;98.20
11678;BME280;5895;41.950;24.372;2024-02-21T06:56:14;87197.91;;;1.91;97.24
11678;BME280;5895;41.950;24.372;2024-02-21T06:58:41;87186.50;;;1.94;97.35
11678;BME280;5895;41.950;24.372;2024-02-21T07:01:09;87205.50;;;1.99;97.05
11678;BME280;5895;41.950;24.372;2024-02-21T07:03:37;87195.50;;;2.12;96.62
11678;BME280;5895;41.950;24.372;2024-02-21T07:06:05;87182.41;;;2.07;96.16
11678;BME280;5895;41.950;24.372;2024-02-21T07:08:32;87185.41;;;2.19;95.82
11678;BME280;5895;41.950;24.372;2024-02-21T07:11:00;87198.81;;;2.44;95.23
11678;BME280;5895;41.950;24.372;2024-02-21T07:13:29;87185.00;;;2.53;94.48
11678;BME280;5895;41.950;24.372;2024-02-21T07:15:56;87195.44;;;2.67;93.27
11678;BME280;5895;41.950;24.372;2024-02-21T07:18:24;87225.44;;;2.81;92.22
11678;BME280;5895;41.950;24.372;2024-02-21T07:20:52;87192.56;;;2.70;92.86
11678;BME280;5895;41.950;24.372;2024-02-21T07:23:19;87187.88;;;2.73;92.30
11678;BME280;5895;41.950;24.372;2024-02-21T07:25:47;87211.31;;;2.85;93.27
11678;BME280;5895;41.950;24.372;2024-02-21T07:28:14;87195.38;;;2.75;92.05
11678;BME280;5895;41.950;24.372;2024-02-21T07:30:44;87210.97;;;2.88;92.11
11678;BME280;5895;41.950;24.372;2024-02-21T07:33:12;87187.72;;;2.89;91.93
11678;BME280;5895;41.950;24.372;2024-02-21T07:35:39;87198.38;;;3.16;93.05
11678;BME280;5895;41.950;24.372;2024-02-21T07:38:07;87209.19;;;3.26;91.59
11678;BME280;5895;41.950;24.372;2024-02-21T07:40:38;87194.41;;;3.28;91.51
11678;BME280;5895;41.950;24.372;2024-02-21T07:43:06;87207.13;;;3.51;90.29
11678;BME280;5895;41.950;24.372;2024-02-21T07:45:33;87208.81;;;3.74;89.53
11678;BME280;5895;41.950;24.372;2024-02-21T07:48:02;87211.34;;;4.03;88.16
11678;BME280;5895;41.950;24.372;2024-02-21T07:50:29;87201.75;;;4.27;87.34
11678;BME280;5895;41.950;24.372;2024-02-21T07:52:56;87197.63;;;4.11;87.01
11678;BME280;5895;41.950;24.372;2024-02-21T07:55:24;87211.00;;;4.06;87.28
11678;BME280;5895;41.950;24.372;2024-02-21T07:57:51;87203.97;;;4.15;87.83
11678;BME280;5895;41.950;24.372;2024-02-21T08:00:19;87212.25;;;4.32;87.49
11678;BME280;5895;41.950;24.372;2024-02-21T08:02:48;87199.06;;;4.35;86.75
11678;BME280;5895;41.950;24.372;2024-02-21T08:05:18;87203.16;;;4.50;86.17
11678;BME280;5895;41.950;24.372;2024-02-21T08:07:45;87210.81;;;4.65;85.28
11678;BME280;5895;41.950;24.372;2024-02-21T08:10:12;87208.44;;;4.64;84.54
11678;BME280;5895;41.950;24.372;2024-02-21T08:12:39;87217.22;;;4.76;83.56
11678;BME280;5895;41.950;24.372;2024-02-21T08:15:06;87210.09;;;4.71;84.24
11678;BME280;5895;41.950;24.372;2024-02-21T08:17:36;87224.34;;;4.74;85.14
11678;BME280;5895;41.950;24.372;2024-02-21T08:20:04;87201.75;;;4.69;83.97
11678;BME280;5895;41.950;24.372;2024-02-21T08:22:32;87213.72;;;4.77;84.17
11678;BME280;5895;41.950;24.372;2024-02-21T08:24:59;87207.13;;;4.96;83.66
11678;BME280;5895;41.950;24.372;2024-02-21T08:27:26;87210.44;;;5.11;83.34
11678;BME280;5895;41.950;24.372;2024-02-21T08:29:53;87208.47;;;5.13;83.04
11678;BME280;5895;41.950;24.372;2024-02-21T08:32:20;87209.56;;;5.04;82.39
11678;BME280;5895;41.950;24.372;2024-02-21T08:34:47;87216.31;;;5.05;83.32
11678;BME280;5895;41.950;24.372;2024-02-21T08:37:14;87215.94;;;5.36;82.79
11678;BME280;5895;41.950;24.372;2024-02-21T08:39:43;87211.84;;;5.42;81.88
11678;BME280;5895;41.950;24.372;2024-02-21T08:42:10;87223.00;;;5.27;83.03
11678;BME280;5895;41.950;24.372;2024-02-21T08:44:39;87213.75;;;5.33;82.56
11678;BME280;5895;41.950;24.372;2024-02-21T08:47:06;87225.06;;;5.39;82.09
11678;BME280;5895;41.950;24.372;2024-02-21T08:49:35;87216.91;;;5.28;82.88
11678;BME280;5895;41.950;24.372;2024-02-21T08:52:03;87214.03;;;5.17;83.52
11678;BME280;5895;41.950;24.372;2024-02-21T08:54:31;87216.78;;;5.15;83.19
11678;BME280;5895;41.950;24.372;2024-02-21T08:56:59;87224.25;;;5.10;83.34
11678;BME280;5895;41.950;24.372;2024-02-21T08:59:26;87226.59;;;5.05;84.13
11678;BME280;5895;41.950;24.372;2024-02-21T09:01:53;87226.22;;;5.08;83.49
11678;BME280;5895;41.950;24.372;2024-02-21T09:04:20;87230.34;;;5.30;83.35
11678;BME280;5895;41.950;24.372;2024-02-21T09:06:47;87237.56;;;5.42;83.23
11678;BME280;5895;41.950;24.372;2024-02-21T09:09:14;87221.66;;;5.60;82.32
11678;BME280;5895;41.950;24.372;2024-02-21T09:11:41;87233.72;;;5.59;82.53
11678;BME280;5895;41.950;24.372;2024-02-21T09:14:10;87245.56;;;5.25;82.19
11678;BME280;5895;41.950;24.372;2024-02-21T09:16:37;87235.97;;;5.41;83.30
11678;BME280;5895;41.950;24.372;2024-02-21T09:19:04;87227.97;;;5.57;82.09
11678;BME280;5895;41.950;24.372;2024-02-21T09:21:31;87228.22;;;5.62;82.69
11678;BME280;5895;41.950;24.372;2024-02-21T09:23:58;87236.59;;;5.77;81.78
11678;BME280;5895;41.950;24.372;2024-02-21T09:26:25;87241.97;;;5.82;80.47
11678;BME280;5895;41.950;24.372;2024-02-21T09:28:52;87234.06;;;6.12;80.24
11678;BME280;5895;41.950;24.372;2024-02-21T09:31:21;87233.25;;;6.53;78.83
11678;BME280;5895;41.950;24.372;2024-02-21T09:33:48;87221.78;;;6.69;77.79
11678;BME280;5895;41.950;24.372;2024-02-21T09:36:15;87235.13;;;6.85;78.12
11678;BME280;5895;41.950;24.372;2024-02-21T09:38:42;87237.28;;;6.82;77.53
11678;BME280;5895;41.950;24.372;2024-02-21T09:41:15;87238.22;;;6.61;77.03
11678;BME280;5895;41.950;24.372;2024-02-21T09:43:43;87238.59;;;6.51;79.58
11678;BME280;5895;41.950;24.372;2024-02-21T09:46:16;87239.16;;;6.47;78.78
11678;BME280;5895;41.950;24.372;2024-02-21T09:49:00;87242.34;;;6.55;77.15
11678;BME280;5895;41.950;24.372;2024-02-21T09:51:32;87233.75;;;7.03;77.38
11678;BME280;5895;41.950;24.372;2024-02-21T09:54:01;87235.56;;;7.22;77.20
11678;BME280;5895;41.950;24.372;2024-02-21T09:56:29;87238.16;;;7.42;76.16
11678;BME280;5895;41.950;24.372;2024-02-21T09:58:57;87227.66;;;7.30;74.79
11678;BME280;5895;41.950;24.372;2024-02-21T10:01:25;87227.63;;;7.24;75.86
11678;BME280;5895;41.950;24.372;2024-02-21T10:03:53;87232.78;;;7.10;74.91
11678;BME280;5895;41.950;24.372;2024-02-21T10:06:20;87220.81;;;6.89;76.06
11678;BME280;5895;41.950;24.372;2024-02-21T10:08:52;87229.41;;;6.97;76.27
11678;BME280;5895;41.950;24.372;2024-02-21T10:11:22;87231.56;;;7.06;75.91
11678;BME280;5895;41.950;24.372;2024-02-21T10:13:50;87225.81;;;7.04;75.76
11678;BME280;5895;41.950;24.372;2024-02-21T10:16:17;87228.03;;;7.27;75.87
11678;BME280;5895;41.950;24.372;2024-02-21T10:18:44;87212.53;;;7.60;74.82
11678;BME280;5895;41.950;24.372;2024-02-21T10:21:12;87229.19;;;7.84;74.77
11678;BME280;5895;41.950;24.372;2024-02-21T10:23:43;87219.88;;;7.83;73.00
11678;BME280;5895;41.950;24.372;2024-02-21T10:26:11;87217.91;;;7.65;74.88
11678;BME280;5895;41.950;24.372;2024-02-21T10:28:38;87232.59;;;7.38;75.46
11678;BME280;5895;41.950;24.372;2024-02-21T10:31:08;87208.38;;;7.13;76.07
11678;BME280;5895;41.950;24.372;2024-02-21T10:33:36;87206.56;;;7.00;76.94
11678;BME280;5895;41.950;24.372;2024-02-21T10:36:07;87205.56;;;6.88;75.51
11678;BME280;5895;41.950;24.372;2024-02-21T10:38:37;87201.34;;;6.67;75.92
11678;BME280;5895;41.950;24.372;2024-02-21T10:41:05;87202.75;;;6.63;77.23
11678;BME280;5895;41.950;24.372;2024-02-21T10:43:38;87197.75;;;6.55;76.59
11678;BME280;5895;41.950;24.372;2024-02-21T10:46:08;87193.56;;;6.47;77.33
11678;BME280;5895;41.950;24.372;2024-02-21T10:48:42;87187.78;;;6.39;77.16
11678;BME280;5895;41.950;24.372;2024-02-21T10:51:15;87187.97;;;6.30;77.27
11678;BME280;5895;41.950;24.372;2024-02-21T10:53:52;87188.53;;;6.26;76.88
11678;BME280;5895;41.950;24.372;2024-02-21T10:56:28;87186.16;;;6.24;77.64
11678;BME280;5895;41.950;24.372;2024-02-21T10:58:58;87190.09;;;6.20;79.07
11678;BME280;5895;41.950;24.372;2024-02-21T11:01:26;87184.16;;;6.20;78.66
11678;BME280;5895;41.950;24.372;2024-02-21T11:03:55;87178.41;;;6.18;77.75
11678;BME280;5895;41.950;24.372;2024-02-21T11:06:24;87168.28;;;6.16;78.82
11678;BME280;5895;41.950;24.372;2024-02-21T11:09:02;87197.63;;;6.15;76.97
11678;BME280;5895;41.950;24.372;2024-02-21T11:11:33;87172.63;;;6.16;78.54
11678;BME280;5895;41.950;24.372;2024-02-21T11:14:07;87179.00;;;6.13;77.22
11678;BME280;5895;41.950;24.372;2024-02-21T11:16:36;87171.44;;;6.12;79.50
11678;BME280;5895;41.950;24.372;2024-02-21T11:19:05;87175.78;;;6.11;80.14
11678;BME280;5895;41.950;24.372;2024-02-21T11:21:33;87175.00;;;6.17;79.00
11678;BME280;5895;41.950;24.372;2024-02-21T11:24:03;87170.72;;;6.31;78.51
11678;BME280;5895;41.950;24.372;2024-02-21T11:26:30;87168.44;;;6.82;77.87
11678;BME280;5895;41.950;24.372;2024-02-21T11:28:58;87165.31;;;7.47;76.23
11678;BME280;5895;41.950;24.372;2024-02-21T11:31:26;87173.63;;;7.49;75.50
11678;BME280;5895;41.950;24.372;2024-02-21T11:33:53;87164.69;;;7.58;75.22
11678;BME280;5895;41.950;24.372;2024-02-21T11:36:27;87163.88;;;7.51;74.75
11678;BME280;5895;41.950;24.372;2024-02-21T11:38:54;87159.13;;;7.48;74.63
11678;BME280;5895;41.950;24.372;2024-02-21T11:41:23;87158.75;;;7.37;74.38
11678;BME280;5895;41.950;24.372;2024-02-21T11:43:50;87156.34;;;7.29;74.71
11678;BME280;5895;41.950;24.372;2024-02-21T11:46:17;87127.59;;;7.06;75.31
11678;BME280;5895;41.950;24.372;2024-02-21T11:48:45;87155.38;;;7.30;75.61
11678;BME280;5895;41.950;24.372;2024-02-21T11:51:21;87144.81;;;7.52;74.92
11678;BME280;5895;41.950;24.372;2024-02-21T11:53:51;87146.63;;;7.58;74.34
11678;BME280;5895;41.950;24.372;2024-02-21T11:56:18;87154.56;;;7.50;74.71
11678;BME280;5895;41.950;24.372;2024-02-21T11:58:47;87145.44;;;7.27;74.07
11678;BME280;5895;41.950;24.372;2024-02-21T12:01:14;87154.00;;;7.41;75.26
11678;BME280;5895;41.950;24.372;2024-02-21T12:03:42;87151.41;;;7.28;75.13
11678;BME280;5895;41.950;24.372;2024-02-21T12:06:16;87134.34;;;7.20;75.57
11678;BME280;5895;41.950;24.372;2024-02-21T12:08:45;87144.66;;;7.13;75.34
11678;BME280;5895;41.950;24.372;2024-02-21T12:11:19;87141.09;;;7.08;73.59
11678;BME280;5895;41.950;24.372;2024-02-21T12:13:58;87146.06;;;7.03;72.77
11678;BME280;5895;41.950;24.372;2024-02-21T12:16:27;87131.56;;;7.02;74.98
11678;BME280;5895;41.950;24.372;2024-02-21T12:18:54;87131.16;;;7.05;75.70
11678;BME280;5895;41.950;24.372;2024-02-21T12:21:24;87130.16;;;6.99;73.78
11678;BME280;5895;41.950;24.372;2024-02-21T12:23:53;87126.00;;;6.92;75.05
11678;BME280;5895;41.950;24.372;2024-02-21T12:26:20;87114.69;;;6.66;74.71
11678;BME280;5895;41.950;24.372;2024-02-21T12:28:49;87130.94;;;6.67;75.10
11678;BME280;5895;41.950;24.372;2024-02-21T12:31:16;87131.72;;;6.60;75.04
11678;BME280;5895;41.950;24.372;2024-02-21T12:33:43;87123.41;;;6.65;75.79
11678;BME280;5895;41.950;24.372;2024-02-21T12:36:10;87122.81;;;6.76;75.42
11678;BME280;5895;41.950;24.372;2024-02-21T12:38:37;87122.63;;;6.71;74.64
11678;BME280;5895;41.950;24.372;2024-02-21T12:41:04;87126.56;;;6.47;75.50
11678;BME280;5895;41.950;24.372;2024-02-21T12:43:33;87117.66;;;6.63;75.29
11678;BME280;5895;41.950;24.372;2024-02-21T12:46:01;87119.41;;;6.56;73.69
11678;BME280;5895;41.950;24.372;2024-02-21T12:48:28;87131.50;;;6.35;74.42
11678;BME280;5895;41.950;24.372;2024-02-21T12:50:55;87113.66;;;6.41;75.19
11678;BME280;5895;41.950;24.372;2024-02-21T12:53:23;87112.84;;;6.33;74.90
11678;BME280;5895;41.950;24.372;2024-02-21T12:55:50;87120.31;;;6.15;73.60
11678;BME280;5895;41.950;24.372;2024-02-21T12:58:17;87106.66;;;6.08;74.08
11678;BME280;5895;41.950;24.372;2024-02-21T13:00:44;87114.38;;;6.08;75.26
11678;BME280;5895;41.950;24.372;2024-02-21T13:03:13;87100.69;;;6.01;75.16
11678;BME280;5895;41.950;24.372;2024-02-21T13:05:40;87109.66;;;6.18;75.02
11678;BME280;5895;41.950;24.372;2024-02-21T13:08:08;87113.50;;;6.69;74.53
11678;BME280;5895;41.950;24.372;2024-02-21T13:10:35;87103.59;;;6.99;73.54